createdAt,value
2022-08-03T00:01:30.474Z,13.13
2022-08-03T00:03:33.745Z,14.27
2022-08-03T00:05:37.449Z,8.45
2022-08-03T00:07:40.617Z,10.82
2022-08-03T00:09:43.882Z,9.27
2022-08-03T00:11:47.025Z,10.05
2022-08-03T00:13:53.426Z,8.90
2022-08-03T00:15:59.155Z,8.35
2022-08-03T00:18:02.247Z,12.48
2022-08-03T00:20:05.844Z,10.80
2022-08-03T00:22:09.842Z,13.88
2022-08-03T00:24:13.162Z,8.88
2022-08-03T00:26:16.347Z,9.13
2022-08-03T00:28:19.493Z,11.60
2022-08-03T00:30:22.871Z,8.73
2022-08-03T00:32:32.742Z,9.75
2022-08-03T00:34:57.990Z,8.88
2022-08-03T00:36:59.502Z,15.45
2022-08-03T00:39:02.647Z,9.75
2022-08-03T00:41:05.882Z,8.68
2022-08-03T00:43:09.425Z,10.10
2022-08-03T00:45:12.624Z,9.30
2022-08-03T00:47:15.887Z,10.68
2022-08-03T00:49:21.697Z,10.00
2022-08-03T00:51:25.053Z,7.53
2022-08-03T00:53:28.414Z,7.55
2022-08-03T00:55:31.589Z,7.60
2022-08-03T00:57:36.041Z,8.52
2022-08-03T00:59:39.214Z,7.57
2022-08-03T01:01:42.491Z,8.90
2022-08-03T01:03:45.730Z,12.45
2022-08-03T01:05:55.848Z,9.55
2022-08-03T01:08:02.832Z,7.85
2022-08-03T01:10:10.111Z,7.88
2022-08-03T01:12:18.419Z,8.23
2022-08-03T01:14:26.310Z,7.65
2022-08-03T01:16:36.726Z,8.65
2022-08-03T01:18:45.413Z,8.40
2022-08-03T01:20:50.095Z,7.70
2022-08-03T01:23:03.912Z,8.90
2022-08-03T01:25:10.571Z,12.63
2022-08-03T01:27:15.470Z,9.02
2022-08-03T01:29:33.424Z,8.70
2022-08-03T01:32:53.365Z,8.40
2022-08-03T01:34:08.390Z,9.18
2022-08-03T01:36:19.943Z,13.35
2022-08-03T01:38:24.717Z,9.30
2022-08-03T01:40:28.609Z,10.93
2022-08-03T01:42:32.761Z,8.70
2022-08-03T01:44:37.924Z,10.15
2022-08-03T01:46:47.612Z,8.75
2022-08-03T01:48:52.658Z,10.65
2022-08-03T01:50:56.816Z,9.25
2022-08-03T01:53:00.575Z,8.73
2022-08-03T01:55:04.456Z,9.65
2022-08-03T01:57:07.829Z,10.15
2022-08-03T01:59:12.329Z,8.05
2022-08-03T02:01:16.890Z,10.05
2022-08-03T02:03:24.029Z,8.25
2022-08-03T02:05:27.769Z,9.32
2022-08-03T02:07:31.315Z,13.82
2022-08-03T02:09:34.931Z,8.57
2022-08-03T02:11:38.271Z,10.88
2022-08-03T02:13:41.421Z,9.00
2022-08-03T02:15:44.673Z,9.90
2022-08-03T02:17:48.482Z,8.77
2022-08-03T02:19:54.560Z,8.35
2022-08-03T02:22:01.329Z,8.73
2022-08-03T02:24:06.066Z,9.15
2022-08-03T02:26:11.335Z,8.93
2022-08-03T02:28:18.000Z,8.55
2022-08-03T02:30:21.682Z,10.15
2022-08-03T02:32:28.960Z,8.60
2022-08-03T02:34:34.526Z,9.23
2022-08-03T02:36:41.636Z,8.20
2022-08-03T02:38:46.310Z,7.47
2022-08-03T02:40:50.622Z,9.23
2022-08-03T02:42:55.582Z,8.23
2022-08-03T02:45:00.545Z,7.80
2022-08-03T02:47:05.869Z,7.88
2022-08-03T02:49:40.897Z,7.28
2022-08-03T02:51:34.204Z,7.93
2022-08-03T02:53:41.372Z,8.23
2022-08-03T02:55:45.825Z,8.75
2022-08-03T02:57:49.642Z,9.02
2022-08-03T02:59:53.502Z,8.70
2022-08-03T03:01:56.731Z,7.43
2022-08-03T03:04:00.576Z,7.88
2022-08-03T03:06:09.715Z,9.70
2022-08-03T03:08:18.009Z,7.88
2022-08-03T03:10:25.733Z,7.93
2022-08-03T03:12:29.746Z,10.80
2022-08-03T03:14:34.154Z,7.80
2022-08-03T03:16:39.650Z,8.45
2022-08-03T03:18:43.930Z,8.65
2022-08-03T03:20:47.583Z,8.77
2022-08-03T03:22:51.325Z,9.32
2022-08-03T03:24:55.508Z,8.02
2022-08-03T03:27:01.756Z,8.45
2022-08-03T03:29:05.066Z,9.00
2022-08-03T03:31:08.748Z,10.40
2022-08-03T03:33:11.882Z,8.60
2022-08-03T03:35:15.073Z,8.88
2022-08-03T03:37:18.335Z,9.07
2022-08-03T03:39:21.533Z,11.65
2022-08-03T03:41:25.007Z,9.07
2022-08-03T03:43:30.895Z,9.10
2022-08-03T03:45:35.208Z,9.20
2022-08-03T03:47:38.555Z,11.30
2022-08-03T03:49:41.963Z,8.50
2022-08-03T03:51:45.301Z,11.95
2022-08-03T03:53:57.957Z,10.07
2022-08-03T03:56:02.631Z,9.32
2022-08-03T03:58:06.457Z,8.18
2022-08-03T04:00:12.777Z,11.30
2022-08-03T04:02:15.610Z,10.15
2022-08-03T04:04:18.390Z,10.57
2022-08-03T04:06:21.349Z,9.90
2022-08-03T04:08:24.502Z,10.90
2022-08-03T04:10:28.964Z,12.45
2022-08-03T04:12:32.525Z,10.68
2022-08-03T04:14:36.752Z,10.55
2022-08-03T04:16:44.625Z,9.05
2022-08-03T04:18:50.347Z,9.45
2022-08-03T04:20:54.246Z,10.48
2022-08-03T04:22:58.199Z,10.93
2022-08-03T04:25:03.812Z,9.82
2022-08-03T04:27:10.082Z,10.65
2022-08-03T04:29:14.564Z,10.57
2022-08-03T04:31:18.707Z,12.95
2022-08-03T04:33:29.726Z,15.23
2022-08-03T04:36:01.846Z,8.52
2022-08-03T04:37:59.856Z,9.43
2022-08-03T04:40:03.447Z,11.45
2022-08-03T04:42:09.132Z,11.38
2022-08-03T04:44:14.556Z,9.30
2022-08-03T04:46:17.944Z,10.02
2022-08-03T04:48:21.337Z,8.95
2022-08-03T04:50:27.857Z,8.68
2022-08-03T04:52:31.673Z,11.35
2022-08-03T04:54:39.916Z,9.75
2022-08-03T04:56:43.272Z,10.45
2022-08-03T04:58:46.626Z,9.00
2022-08-03T05:00:49.745Z,8.45
2022-08-03T05:02:53.425Z,9.18
2022-08-03T05:04:56.565Z,7.93
2022-08-03T05:07:12.515Z,8.80
2022-08-03T05:09:15.829Z,19.77
2022-08-03T05:11:38.917Z,8.35
2022-08-03T05:13:42.042Z,10.68
2022-08-03T05:15:44.789Z,13.38
2022-08-03T05:17:47.490Z,10.57
2022-08-03T05:19:50.203Z,13.65
2022-08-03T05:21:53.107Z,8.13
2022-08-03T05:23:58.877Z,10.00
2022-08-03T05:26:01.989Z,11.93
2022-08-03T05:28:05.467Z,10.45
2022-08-03T05:30:31.710Z,10.68
2022-08-03T05:32:34.323Z,7.60
2022-08-03T05:34:37.461Z,8.10
2022-08-03T05:36:40.611Z,7.13
2022-08-03T05:38:43.733Z,7.03
2022-08-03T05:40:57.350Z,8.52
2022-08-03T05:43:12.518Z,7.93
2022-08-03T05:45:15.702Z,7.88
2022-08-03T05:47:18.982Z,7.00
2022-08-03T05:49:22.185Z,6.63
2022-08-03T05:51:25.359Z,5.68
2022-08-03T05:53:28.722Z,4.65
2022-08-03T05:55:31.945Z,4.30
2022-08-03T05:57:38.028Z,5.93
2022-08-03T05:59:41.139Z,4.55
2022-08-03T06:01:59.672Z,4.53
2022-08-03T06:04:02.951Z,7.57
2022-08-03T06:06:06.152Z,7.15
2022-08-03T06:08:09.262Z,6.30
2022-08-03T06:10:37.577Z,4.80
2022-08-03T06:12:38.137Z,5.85
2022-08-03T06:14:41.308Z,6.13
2022-08-03T06:16:44.448Z,5.60
2022-08-03T06:18:47.633Z,4.60
2022-08-03T06:20:50.779Z,9.10
2022-08-03T06:23:00.925Z,3.38
2022-08-03T06:25:08.228Z,5.78
2022-08-03T06:27:14.466Z,4.97
2022-08-03T06:29:20.239Z,4.63
2022-08-03T06:31:33.348Z,5.13
2022-08-03T06:34:31.162Z,6.20
2022-08-03T06:35:59.987Z,2.67
2022-08-03T06:38:03.250Z,5.28
2022-08-03T06:40:07.011Z,4.63
2022-08-03T06:42:10.165Z,4.05
2022-08-03T06:44:13.315Z,3.70
2022-08-03T06:46:19.405Z,5.22
2022-08-03T06:48:22.531Z,3.03
2022-08-03T06:50:26.262Z,6.35
2022-08-03T06:52:37.692Z,4.75
2022-08-03T06:54:41.669Z,4.88
2022-08-03T06:56:45.141Z,3.13
2022-08-03T06:58:48.236Z,2.80
2022-08-03T07:00:51.393Z,2.63
2022-08-03T07:02:58.494Z,10.30
2022-08-03T07:05:01.845Z,3.33
2022-08-03T07:07:05.035Z,5.25
2022-08-03T07:09:08.157Z,5.70
2022-08-03T07:11:11.277Z,3.70
2022-08-03T07:13:14.498Z,5.75
2022-08-03T07:15:20.369Z,2.25
2022-08-03T07:17:40.686Z,5.50
2022-08-03T07:19:46.470Z,5.13
2022-08-03T07:21:49.575Z,5.53
2022-08-03T07:23:56.715Z,5.63
2022-08-03T07:25:59.853Z,2.63
2022-08-03T07:28:02.989Z,6.05
2022-08-03T07:30:07.230Z,7.53
2022-08-03T07:32:10.454Z,3.33
2022-08-03T07:34:13.617Z,5.15
2022-08-03T07:36:19.297Z,4.47
2022-08-03T07:38:22.430Z,5.30
2022-08-03T07:40:28.172Z,3.80
2022-08-03T07:42:34.987Z,2.90
2022-08-03T07:44:38.168Z,3.22
2022-08-03T07:46:41.349Z,3.70
2022-08-03T07:48:44.582Z,2.22
2022-08-03T07:50:47.848Z,2.65
2022-08-03T07:52:53.639Z,4.82
2022-08-03T07:54:56.860Z,2.38
2022-08-03T07:57:00.113Z,2.10
2022-08-03T07:59:03.291Z,3.28
2022-08-03T08:01:06.646Z,4.90
2022-08-03T08:03:09.817Z,2.30
2022-08-03T08:05:13.058Z,2.50
2022-08-03T08:07:16.325Z,5.15
2022-08-03T08:09:24.087Z,6.20
2022-08-03T08:11:27.201Z,2.03
2022-08-03T08:13:30.333Z,3.05
2022-08-03T08:15:33.578Z,2.20
2022-08-03T08:17:46.299Z,2.78
2022-08-03T08:19:51.281Z,8.18
2022-08-03T08:22:02.451Z,2.72
2022-08-03T08:24:10.938Z,3.08
2022-08-03T08:26:23.827Z,2.55
2022-08-03T08:28:32.523Z,3.90
2022-08-03T08:30:36.759Z,4.88
2022-08-03T08:32:39.918Z,2.22
2022-08-03T08:34:43.131Z,5.05
2022-08-03T08:36:46.285Z,6.28
2022-08-03T08:38:51.269Z,4.82
2022-08-03T08:40:56.283Z,3.42
2022-08-03T08:43:02.719Z,2.00
2022-08-03T08:45:06.513Z,2.42
2022-08-03T08:47:10.978Z,2.47
2022-08-03T08:49:17.628Z,4.43
2022-08-03T08:51:21.560Z,2.17
2022-08-03T08:53:27.591Z,2.92
2022-08-03T08:55:58.921Z,4.97
2022-08-03T08:57:58.147Z,3.25
2022-08-03T09:00:04.792Z,3.88
2022-08-03T09:02:08.068Z,4.22
2022-08-03T09:04:11.310Z,2.55
2022-08-03T09:06:14.533Z,3.03
2022-08-03T09:08:17.737Z,4.00
2022-08-03T09:10:20.946Z,7.70
2022-08-03T09:12:42.223Z,6.57
2022-08-03T09:15:07.349Z,3.85
2022-08-03T09:17:17.383Z,2.30
2022-08-03T09:19:20.742Z,1.88
2022-08-03T09:21:31.825Z,2.00
2022-08-03T09:24:01.081Z,2.17
2022-08-03T09:26:05.778Z,1.95
2022-08-03T09:28:10.578Z,3.25
2022-08-03T09:30:33.550Z,4.07
2022-08-03T09:32:40.371Z,4.63
2022-08-03T09:34:43.623Z,3.30
2022-08-03T09:36:47.431Z,2.78
2022-08-03T09:39:01.566Z,6.20
2022-08-03T09:41:18.003Z,3.85
2022-08-03T09:43:21.159Z,3.13
2022-08-03T09:45:27.631Z,2.40
2022-08-03T09:47:31.621Z,1.63
2022-08-03T09:49:37.887Z,2.58
2022-08-03T09:52:31.643Z,5.63
2022-08-03T09:54:05.767Z,5.60
2022-08-03T09:56:36.208Z,3.38
2022-08-03T09:58:34.579Z,2.45
2022-08-03T10:00:53.014Z,2.95
2022-08-03T10:03:04.648Z,2.15
2022-08-03T10:05:11.269Z,4.00
2022-08-03T10:07:23.806Z,2.00
2022-08-03T10:09:26.973Z,2.25
2022-08-03T10:11:30.484Z,2.40
2022-08-03T10:13:34.333Z,1.98
2022-08-03T10:16:23.662Z,2.83
2022-08-03T10:18:00.641Z,2.00
2022-08-03T10:20:05.491Z,2.17
2022-08-03T10:22:13.115Z,2.22
2022-08-03T10:24:17.790Z,2.85
2022-08-03T10:26:22.186Z,2.65
2022-08-03T10:28:25.784Z,3.83
2022-08-03T10:30:29.155Z,2.20
2022-08-03T10:32:35.292Z,2.08
2022-08-03T10:34:44.511Z,4.65
2022-08-03T10:36:48.334Z,2.00
2022-08-03T10:38:54.968Z,4.78
2022-08-03T10:40:59.253Z,1.75
2022-08-03T10:43:06.909Z,2.97
2022-08-03T10:45:16.030Z,6.03
2022-08-03T10:49:34.731Z,1.90
2022-08-03T10:51:39.285Z,2.38
2022-08-03T10:53:51.540Z,2.13
2022-08-03T10:56:01.709Z,4.53
2022-08-03T10:58:08.007Z,1.67
2022-08-03T11:00:14.707Z,1.98
2022-08-03T11:02:17.852Z,2.40
2022-08-03T11:04:21.431Z,3.13
2022-08-03T11:06:25.257Z,1.50
2022-08-03T11:08:29.449Z,2.75
2022-08-03T11:10:32.617Z,6.40
2022-08-03T11:12:38.350Z,2.25
2022-08-03T11:14:47.149Z,2.40
2022-08-03T11:16:51.004Z,2.10
2022-08-03T11:18:58.276Z,2.38
2022-08-03T11:21:01.585Z,3.40
2022-08-03T11:23:04.751Z,4.45
2022-08-03T11:25:08.516Z,3.15
2022-08-03T11:27:32.468Z,2.38
2022-08-03T11:29:38.340Z,6.78
2022-08-03T11:31:50.145Z,5.28
2022-08-03T11:34:04.208Z,2.15
2022-08-03T11:36:07.358Z,2.42
2022-08-03T11:38:13.530Z,3.40
2022-08-03T11:40:31.489Z,2.40
2022-08-03T11:42:41.380Z,2.40
2022-08-03T11:44:47.607Z,4.65
2022-08-03T11:46:51.005Z,4.30
2022-08-03T11:48:55.059Z,13.65
2022-08-03T11:50:58.252Z,2.90
2022-08-03T11:53:01.408Z,2.75
2022-08-03T11:55:09.234Z,2.45
2022-08-03T11:57:12.533Z,5.57
2022-08-03T11:59:20.270Z,9.98
2022-08-03T12:01:27.662Z,5.18
2022-08-03T12:03:33.012Z,6.18
2022-08-03T12:05:51.212Z,5.25
2022-08-03T12:08:03.970Z,2.50
2022-08-03T12:10:09.793Z,4.47
2022-08-03T12:12:16.689Z,3.35
2022-08-03T12:14:48.712Z,2.40
2022-08-03T12:16:47.505Z,3.80
2022-08-03T12:18:55.442Z,3.40
2022-08-03T12:21:04.788Z,4.30
2022-08-03T12:23:08.474Z,5.65
2022-08-03T12:25:20.837Z,13.80
2022-08-03T12:27:42.930Z,5.13
2022-08-03T12:29:58.470Z,3.35
2022-08-03T12:32:05.155Z,4.50
2022-08-03T12:34:08.340Z,3.20
2022-08-03T12:36:11.611Z,9.80
2022-08-03T12:38:14.830Z,4.53
2022-08-03T12:40:28.186Z,2.55
2022-08-03T12:42:31.987Z,4.32
2022-08-03T12:44:36.412Z,2.55
2022-08-03T12:46:45.326Z,5.57
2022-08-03T12:49:09.903Z,6.03
2022-08-03T12:51:13.082Z,4.05
2022-08-03T12:53:28.767Z,2.45
2022-08-03T12:55:32.562Z,2.95
2022-08-03T12:57:55.670Z,5.20
2022-08-03T13:00:21.228Z,6.57
2022-08-03T13:02:26.405Z,4.32
2022-08-03T13:04:33.635Z,4.68
2022-08-03T13:06:36.910Z,4.43
2022-08-03T13:08:40.070Z,3.15
2022-08-03T13:10:43.360Z,3.55
2022-08-03T13:12:47.566Z,4.65
2022-08-03T13:14:51.980Z,3.45
2022-08-03T13:16:55.141Z,4.72
2022-08-03T13:18:58.301Z,4.88
2022-08-03T13:21:07.057Z,4.28
2022-08-03T13:23:15.397Z,5.07
2022-08-03T13:25:25.329Z,2.40
2022-08-03T13:28:10.986Z,6.32
2022-08-03T13:29:52.406Z,4.38
2022-08-03T13:31:55.790Z,3.10
2022-08-03T13:33:58.923Z,2.50
2022-08-03T13:36:02.069Z,3.78
2022-08-03T13:38:07.983Z,5.07
2022-08-03T13:40:11.877Z,3.78
2022-08-03T13:42:17.904Z,8.25
2022-08-03T13:44:29.123Z,14.35
2022-08-03T13:46:33.008Z,3.75
2022-08-03T13:48:37.832Z,2.22
2022-08-03T13:50:43.075Z,5.18
2022-08-03T13:52:46.414Z,3.15
2022-08-03T13:54:52.113Z,6.05
2022-08-03T13:56:59.030Z,4.15
2022-08-03T13:59:18.377Z,3.30
2022-08-03T14:01:53.586Z,2.60
2022-08-03T14:03:44.852Z,3.22
2022-08-03T14:05:48.932Z,4.22
2022-08-03T14:07:52.121Z,3.97
2022-08-03T14:10:04.046Z,3.90
2022-08-03T14:12:08.834Z,2.65
2022-08-03T14:14:12.949Z,3.75
2022-08-03T14:16:17.009Z,5.38
2022-08-03T14:18:28.364Z,4.78
2022-08-03T14:20:50.297Z,4.53
2022-08-03T14:22:57.471Z,7.13
2022-08-03T14:25:00.596Z,4.35
2022-08-03T14:27:19.241Z,5.60
2022-08-03T14:29:22.413Z,3.45
2022-08-03T14:32:11.229Z,5.20
2022-08-03T14:33:48.660Z,3.63
2022-08-03T14:35:52.266Z,3.22
2022-08-03T14:37:55.398Z,5.15
2022-08-03T14:39:59.997Z,3.05
2022-08-03T14:42:03.806Z,2.92
2022-08-03T14:44:09.609Z,2.78
2022-08-03T14:46:12.928Z,3.28
2022-08-03T14:49:02.793Z,5.05
2022-08-03T14:50:43.187Z,2.70
2022-08-03T14:52:48.710Z,5.75
2022-08-03T14:54:51.867Z,6.57
2022-08-03T14:56:55.010Z,2.60
2022-08-03T14:58:58.171Z,3.42
2022-08-03T15:01:04.309Z,3.65
2022-08-03T15:03:27.323Z,2.58
2022-08-03T15:05:30.499Z,5.85
2022-08-03T15:07:38.808Z,6.13
2022-08-03T15:09:41.890Z,3.65
2022-08-03T15:11:45.037Z,3.38
2022-08-03T15:13:48.139Z,3.75
2022-08-03T15:15:51.290Z,6.10
2022-08-03T15:18:00.211Z,3.15
2022-08-03T15:20:23.405Z,3.30
2022-08-03T15:22:35.058Z,5.57
2022-08-03T15:24:38.367Z,2.92
2022-08-03T15:26:41.893Z,2.58
2022-08-03T15:28:45.102Z,4.15
2022-08-03T15:30:52.255Z,5.78
2022-08-03T15:32:57.984Z,3.75
2022-08-03T15:35:01.119Z,5.88
2022-08-03T15:37:04.293Z,4.60
2022-08-03T15:39:18.385Z,2.65
2022-08-03T15:41:21.521Z,5.45
2022-08-03T15:43:24.844Z,2.50
2022-08-03T15:45:28.031Z,9.00
2022-08-03T15:47:38.690Z,2.80
2022-08-03T15:49:44.402Z,4.32
2022-08-03T15:51:47.715Z,5.97
2022-08-03T15:53:50.835Z,3.65
2022-08-03T15:55:54.070Z,5.13
2022-08-03T15:59:10.621Z,5.22
2022-08-03T16:00:20.355Z,4.40
2022-08-03T16:02:37.205Z,4.75
2022-08-03T16:04:40.335Z,3.90
2022-08-03T16:06:46.062Z,2.83
2022-08-03T16:08:49.240Z,4.57
2022-08-03T16:10:52.355Z,3.47
2022-08-03T16:12:55.587Z,5.38
2022-08-03T16:14:58.766Z,8.98
2022-08-03T16:17:01.888Z,4.88
2022-08-03T16:19:05.472Z,3.50
2022-08-03T16:21:14.788Z,4.20
2022-08-03T16:23:25.495Z,5.82
2022-08-03T16:25:33.592Z,5.85
2022-08-03T16:28:03.575Z,5.55
2022-08-03T16:29:59.877Z,3.55
2022-08-03T16:32:07.359Z,8.65
2022-08-03T16:34:12.278Z,6.15
2022-08-03T16:36:15.443Z,7.40
2022-08-03T16:38:19.563Z,6.68
2022-08-03T16:40:25.669Z,6.00
2022-08-03T16:42:28.792Z,4.85
2022-08-03T16:44:32.802Z,4.32
2022-08-03T16:46:35.953Z,4.82
2022-08-03T16:48:39.094Z,6.20
2022-08-03T16:50:42.585Z,6.72
2022-08-03T16:52:47.101Z,3.50
2022-08-03T16:54:53.657Z,3.92
2022-08-03T16:56:59.737Z,5.72
2022-08-03T16:59:05.190Z,4.90
2022-08-03T17:01:21.107Z,7.38
2022-08-03T17:03:27.832Z,5.07
2022-08-03T17:05:47.063Z,9.18
2022-08-03T17:07:53.958Z,4.45
2022-08-03T17:09:57.549Z,19.40
2022-08-03T17:12:03.840Z,20.52
2022-08-03T17:14:09.743Z,5.38
2022-08-03T17:16:15.314Z,9.10
2022-08-03T17:18:21.954Z,5.85
2022-08-03T17:20:29.714Z,6.28
2022-08-03T17:22:33.881Z,3.83
2022-08-03T17:24:41.013Z,5.78
2022-08-03T17:26:49.815Z,2.78
2022-08-03T17:28:57.172Z,7.95
2022-08-03T17:31:03.455Z,6.85
2022-08-03T17:33:24.455Z,3.90
2022-08-03T17:35:38.752Z,4.47
2022-08-03T17:37:57.365Z,4.60
2022-08-03T17:40:03.827Z,4.07
2022-08-03T17:42:29.506Z,4.40
2022-08-03T17:44:38.753Z,6.22
2022-08-03T17:46:49.059Z,5.82
2022-08-03T17:48:52.968Z,4.93
2022-08-03T17:50:56.734Z,5.32
2022-08-03T17:53:07.820Z,3.63
2022-08-03T17:55:55.941Z,4.55
2022-08-03T17:58:02.101Z,2.78
2022-08-03T18:00:10.382Z,3.83
2022-08-03T18:02:30.521Z,2.77
2022-08-03T18:04:40.622Z,3.25
2022-08-03T18:06:55.601Z,6.60
2022-08-03T18:09:05.399Z,3.08
2022-08-03T18:11:24.023Z,9.65
2022-08-03T18:13:40.806Z,2.92
2022-08-03T18:15:49.241Z,10.98
2022-08-03T18:18:01.823Z,3.75
2022-08-03T18:20:11.903Z,4.00
2022-08-03T18:22:30.609Z,8.43
2022-08-03T18:24:34.945Z,6.22
2022-08-03T18:26:41.116Z,3.40
2022-08-03T18:28:53.091Z,9.20
2022-08-03T18:30:59.524Z,5.28
2022-08-03T18:34:18.251Z,8.63
2022-08-03T18:35:26.294Z,5.03
2022-08-03T18:37:52.141Z,4.13
2022-08-03T18:39:57.943Z,5.50
2022-08-03T18:42:01.292Z,4.10
2022-08-03T18:44:06.838Z,7.32
2022-08-03T18:46:21.293Z,6.32
2022-08-03T18:48:28.979Z,6.22
2022-08-03T18:50:39.588Z,4.70
2022-08-03T18:52:55.483Z,4.10
2022-08-03T18:55:14.007Z,6.47
2022-08-03T18:57:30.209Z,7.20
2022-08-03T18:59:53.618Z,8.55
2022-08-03T19:02:03.998Z,19.60
2022-08-03T19:04:09.822Z,4.80
2022-08-03T19:06:19.714Z,7.47
2022-08-03T19:08:27.598Z,14.40
2022-08-03T19:12:56.106Z,14.05
2022-08-03T19:15:01.095Z,8.77
2022-08-03T19:17:09.883Z,9.85
2022-08-03T19:19:14.600Z,18.13
2022-08-03T19:21:17.970Z,12.65
2022-08-03T19:23:23.818Z,10.60
2022-08-03T19:25:34.426Z,19.58
2022-08-03T19:27:39.656Z,12.10
2022-08-03T19:30:00.154Z,25.65
2022-08-03T19:32:07.997Z,28.50
2022-08-03T19:34:16.580Z,25.45
2022-08-03T19:36:21.283Z,14.55
2022-08-03T19:38:29.905Z,9.38
2022-08-03T19:40:33.748Z,17.30
2022-08-03T19:42:40.687Z,6.82
2022-08-03T19:44:47.038Z,11.98
2022-08-03T19:46:58.735Z,10.60
2022-08-03T19:49:03.879Z,12.10
2022-08-03T19:51:12.172Z,8.63
2022-08-03T19:53:15.794Z,7.22
2022-08-03T19:55:18.973Z,20.10
2022-08-03T19:57:23.996Z,14.50
2022-08-03T19:59:27.619Z,16.50
2022-08-03T20:01:30.745Z,22.73
2022-08-03T20:03:54.174Z,21.17
2022-08-03T20:05:57.409Z,15.63
2022-08-03T20:08:06.023Z,18.80
2022-08-03T20:10:09.316Z,13.20
2022-08-03T20:12:12.532Z,26.52
2022-08-03T20:14:20.842Z,6.97
2022-08-03T20:16:29.799Z,14.98
2022-08-03T20:18:38.941Z,13.85
2022-08-03T20:20:43.317Z,13.23
2022-08-03T20:22:47.473Z,19.67
2022-08-03T20:24:54.369Z,15.15
2022-08-03T20:26:58.084Z,18.83
2022-08-03T20:29:09.161Z,29.83
2022-08-03T20:31:13.458Z,15.52
2022-08-03T20:33:19.027Z,12.60
2022-08-03T20:35:22.719Z,15.02
2022-08-03T20:37:25.976Z,12.73
2022-08-03T20:39:29.153Z,15.32
2022-08-03T20:41:36.997Z,18.00
2022-08-03T20:43:41.306Z,11.82
2022-08-03T20:45:59.883Z,18.60
2022-08-03T20:48:07.769Z,6.63
2022-08-03T20:50:11.870Z,12.65
2022-08-03T20:52:18.536Z,12.45
2022-08-03T20:54:29.402Z,17.20
2022-08-03T20:56:37.286Z,10.68
2022-08-03T20:58:41.622Z,11.07
2022-08-03T21:00:45.168Z,7.32
2022-08-03T21:02:48.356Z,12.93
2022-08-03T21:04:51.534Z,15.60
2022-08-03T21:06:57.470Z,8.27
2022-08-03T21:09:04.111Z,11.88
2022-08-03T21:11:12.376Z,9.98
2022-08-03T21:13:09.190Z,10.13
2022-08-03T21:16:12.230Z,6.40
2022-08-03T21:18:11.795Z,6.55
2022-08-03T21:20:15.409Z,9.10
2022-08-03T21:22:19.964Z,14.45
2022-08-03T21:24:23.801Z,8.32
2022-08-03T21:26:27.365Z,6.53
2022-08-03T21:28:33.426Z,8.40
2022-08-03T21:30:37.270Z,5.72
2022-08-03T21:32:42.568Z,8.55
2022-08-03T21:34:46.036Z,6.15
2022-08-03T21:36:49.748Z,5.82
2022-08-03T21:38:56.589Z,7.00
2022-08-03T21:41:00.233Z,5.47
2022-08-03T21:43:03.415Z,7.25
2022-08-03T21:45:16.551Z,6.88
2022-08-03T21:47:21.764Z,11.10
2022-08-03T21:50:04.478Z,7.30
2022-08-03T21:51:50.676Z,6.45
2022-08-03T21:54:03.355Z,9.10
2022-08-03T21:56:08.039Z,9.90
2022-08-03T21:58:14.340Z,9.10
2022-08-03T22:00:21.229Z,8.95
2022-08-03T22:02:31.996Z,8.27
2022-08-03T22:04:50.801Z,8.68
2022-08-03T22:06:59.281Z,8.35
2022-08-03T22:09:02.493Z,5.88
2022-08-03T22:11:06.314Z,9.00
2022-08-03T22:13:09.437Z,11.70
2022-08-03T22:15:13.633Z,6.70
2022-08-03T22:17:54.109Z,7.05
2022-08-03T22:19:42.939Z,8.25
2022-08-03T22:21:47.660Z,6.25
2022-08-03T22:23:52.219Z,6.72
2022-08-03T22:25:57.185Z,7.38
2022-08-03T22:28:01.195Z,6.78
2022-08-03T22:30:06.690Z,8.32
2022-08-03T22:32:10.116Z,6.38
2022-08-03T22:34:15.783Z,6.32
2022-08-03T22:36:20.074Z,9.80
2022-08-03T22:38:25.966Z,6.90
2022-08-03T22:40:29.130Z,5.97
2022-08-03T22:42:32.333Z,10.73
2022-08-03T22:44:35.878Z,9.30
2022-08-03T22:46:39.543Z,6.40
2022-08-03T22:48:42.711Z,6.22
2022-08-03T22:50:48.865Z,7.75
2022-08-03T22:52:52.653Z,7.63
2022-08-03T22:54:57.026Z,6.55
2022-08-03T22:57:00.454Z,8.13
2022-08-03T22:59:40.031Z,8.98
2022-08-03T23:01:28.530Z,5.90
2022-08-03T23:03:59.763Z,8.48
2022-08-03T23:06:03.553Z,8.00
2022-08-03T23:08:09.301Z,8.02
2022-08-03T23:10:14.664Z,7.40
2022-08-03T23:12:18.961Z,6.32
2022-08-03T23:14:23.232Z,6.88
2022-08-03T23:16:29.194Z,8.18
2022-08-03T23:18:37.354Z,8.77
2022-08-03T23:20:40.766Z,8.35
2022-08-03T23:22:51.031Z,10.38
2022-08-03T23:24:54.627Z,10.30
2022-08-03T23:26:57.828Z,7.68
2022-08-03T23:29:01.992Z,7.85
2022-08-03T23:31:05.164Z,9.25
2022-08-03T23:33:08.795Z,6.95
2022-08-03T23:35:12.242Z,7.35
2022-08-03T23:37:15.657Z,8.90
2022-08-03T23:39:22.954Z,6.35
2022-08-03T23:41:26.134Z,10.57
2022-08-03T23:43:50.737Z,6.22
2022-08-03T23:45:55.770Z,7.57
2022-08-03T23:47:58.886Z,6.22
2022-08-03T23:50:02.257Z,8.00
2022-08-03T23:52:10.087Z,7.50
2022-08-03T23:54:18.191Z,11.40
2022-08-03T23:56:28.623Z,6.65
2022-08-03T23:58:37.837Z,7.32
